Segeza, Russia
Current Conditions -  °F | °C
As of 1:00 AM on Thursday 23 Oct 2014 (Local Time) from ULPB Reporting Station
NA  
Wind Chill:   Ceiling: NA
Heat Index: 14°   Visibility: 6mi
Dew Point: 12°   Wind: 7mph
Humidity: 93%   Direction: NA
Pressure: 30.45"   Gusts: NA
Location:  63.75°N, 34.35°E
Report Text: ULPB 222200Z AUTO VRB03MPS 9999 ////// M10/M11 Q1031
Loading
Personal Weather Stations






























Interactive Weather Map
Tropical Storm Tracking
New forecast layout! Learn more

10-Day Weather Forecast

Advertisements
Track Severe Weather on mobile